createdAt,value
2018-09-05T00:00:06.959Z,19.90
2018-09-05T00:02:35.092Z,19.85
2018-09-05T00:05:03.641Z,19.82
2018-09-05T00:07:32.270Z,19.77
2018-09-05T00:10:00.369Z,19.70
2018-09-05T00:12:28.475Z,19.64
2018-09-05T00:14:56.584Z,19.61
2018-09-05T00:17:24.787Z,19.60
2018-09-05T00:19:53.247Z,19.59
2018-09-05T00:22:21.893Z,19.57
2018-09-05T00:24:50.005Z,19.56
2018-09-05T00:27:18.711Z,19.53
2018-09-05T00:29:47.157Z,19.48
2018-09-05T00:32:16.227Z,19.45
2018-09-05T00:34:44.684Z,19.42
2018-09-05T00:37:12.788Z,19.38
2018-09-05T00:39:41.603Z,19.32
2018-09-05T00:42:09.708Z,19.25
2018-09-05T00:44:38.175Z,19.18
2018-09-05T00:47:06.615Z,19.15
2018-09-05T00:49:34.734Z,19.13
2018-09-05T00:52:03.891Z,19.08
2018-09-05T00:54:32.328Z,19.05
2018-09-05T00:57:00.771Z,19.03
2018-09-05T00:59:29.206Z,19.02
2018-09-05T01:01:57.648Z,19.00
2018-09-05T01:04:25.979Z,18.96
2018-09-05T01:06:55.516Z,18.93
2018-09-05T01:09:23.825Z,18.91
2018-09-05T01:11:52.348Z,18.86
2018-09-05T01:14:20.776Z,18.80
2018-09-05T01:16:48.870Z,18.75
2018-09-05T01:19:17.299Z,18.71
2018-09-05T01:21:45.388Z,18.66
2018-09-05T01:24:13.587Z,18.61
2018-09-05T01:26:42.184Z,18.55
2018-09-05T01:29:10.538Z,18.52
2018-09-05T01:31:39.436Z,18.47
2018-09-05T01:34:07.562Z,18.48
2018-09-05T01:36:36.216Z,18.47
2018-09-05T01:39:06.267Z,18.46
2018-09-05T01:41:34.936Z,18.46
2018-09-05T01:44:03.383Z,18.43
2018-09-05T01:46:32.005Z,18.36
2018-09-05T01:49:00.446Z,18.32
2018-09-05T01:51:32.955Z,18.32
2018-09-05T01:54:02.107Z,18.34
2018-09-05T01:56:31.184Z,18.34
2018-09-05T01:58:59.619Z,18.35
2018-09-05T02:01:28.056Z,18.30
2018-09-05T02:03:56.688Z,18.28
2018-09-05T02:06:25.428Z,18.22
2018-09-05T02:08:55.650Z,18.18
2018-09-05T02:11:24.517Z,18.13
2018-09-05T02:13:52.615Z,18.08
2018-09-05T02:16:21.059Z,18.02
2018-09-05T02:18:49.536Z,18.01
2018-09-05T02:21:17.655Z,18.01
2018-09-05T02:23:45.768Z,18.02
2018-09-05T02:26:14.207Z,18.01
2018-09-05T02:28:42.311Z,18.01
2018-09-05T02:31:10.439Z,17.99
2018-09-05T02:33:38.931Z,18.02
2018-09-05T02:36:07.318Z,18.04
2018-09-05T02:38:35.736Z,18.05
2018-09-05T02:41:03.926Z,18.08
2018-09-05T02:43:37.306Z,18.09
2018-09-05T02:46:05.996Z,18.05
2018-09-05T02:48:34.454Z,18.01
2018-09-05T02:51:03.410Z,17.97
2018-09-05T02:53:31.942Z,17.92
2018-09-05T02:56:02.694Z,17.87
2018-09-05T02:58:32.716Z,17.79
2018-09-05T03:01:01.289Z,17.76
2018-09-05T03:03:29.998Z,17.74
2018-09-05T03:05:58.856Z,17.75
2018-09-05T03:08:27.459Z,17.74
2018-09-05T03:10:55.978Z,17.73
2018-09-05T03:13:24.623Z,17.73
2018-09-05T03:15:52.707Z,17.70
2018-09-05T03:18:20.827Z,17.62
2018-09-05T03:20:49.467Z,17.50
2018-09-05T03:23:17.627Z,17.37
2018-09-05T03:25:46.152Z,17.31
2018-09-05T03:28:14.436Z,17.27
2018-09-05T03:30:42.769Z,17.26
2018-09-05T03:33:10.871Z,17.26
2018-09-05T03:35:39.600Z,17.26
2018-09-05T03:38:08.048Z,17.28
2018-09-05T03:40:36.566Z,17.33
2018-09-05T03:43:05.016Z,17.39
2018-09-05T03:45:33.464Z,17.44
2018-09-05T03:48:01.563Z,17.49
2018-09-05T03:50:30.231Z,17.53
2018-09-05T03:52:58.328Z,17.54
2018-09-05T03:55:26.680Z,17.51
2018-09-05T03:57:54.904Z,17.45
2018-09-05T04:00:23.584Z,17.40
2018-09-05T04:02:51.683Z,17.34
2018-09-05T04:05:20.779Z,17.29
2018-09-05T04:07:51.077Z,17.23
2018-09-05T04:10:19.385Z,17.17
2018-09-05T04:12:47.719Z,17.10
2018-09-05T04:15:16.148Z,17.03
2018-09-05T04:17:44.504Z,16.96
2018-09-05T04:20:13.388Z,16.92
2018-09-05T04:22:41.837Z,16.89
2018-09-05T04:25:10.700Z,16.88
2018-09-05T04:27:38.803Z,16.87
2018-09-05T04:30:07.376Z,16.85
2018-09-05T04:32:35.771Z,16.80
2018-09-05T04:35:03.917Z,16.72
2018-09-05T04:37:32.029Z,16.61
2018-09-05T04:40:00.505Z,16.56
2018-09-05T04:42:29.112Z,16.56
2018-09-05T04:44:57.480Z,16.59
2018-09-05T04:47:26.106Z,16.74
2018-09-05T04:49:55.818Z,16.96
2018-09-05T04:52:24.288Z,17.04
2018-09-05T04:54:52.456Z,17.00
2018-09-05T04:57:21.095Z,16.88
2018-09-05T04:59:49.216Z,16.78
2018-09-05T05:02:17.652Z,16.70
2018-09-05T05:04:46.117Z,16.59
2018-09-05T05:07:14.243Z,16.51
2018-09-05T05:09:42.360Z,16.47
2018-09-05T05:12:10.793Z,16.42
2018-09-05T05:14:39.155Z,16.39
2018-09-05T05:17:07.477Z,16.37
2018-09-05T05:19:36.157Z,16.38
2018-09-05T05:22:04.266Z,16.41
2018-09-05T05:24:32.371Z,16.45
2018-09-05T05:27:00.492Z,16.50
2018-09-05T05:29:28.672Z,16.54
2018-09-05T05:31:56.828Z,16.56
2018-09-05T05:34:25.361Z,16.54
2018-09-05T05:36:54.239Z,16.52
2018-09-05T05:39:22.915Z,16.54
2018-09-05T05:41:51.473Z,16.58
2018-09-05T05:44:19.819Z,16.62
2018-09-05T05:46:47.953Z,16.70
2018-09-05T05:49:16.246Z,16.80
2018-09-05T05:51:44.397Z,16.90
2018-09-05T05:54:12.833Z,16.99
2018-09-05T05:56:41.285Z,17.08
2018-09-05T05:59:09.712Z,17.19
2018-09-05T06:01:38.425Z,17.32
2018-09-05T06:04:06.723Z,17.46
2018-09-05T06:06:35.167Z,17.58
2018-09-05T06:09:08.189Z,17.73
2018-09-05T06:11:36.300Z,17.86
2018-09-05T06:14:05.128Z,17.97
2018-09-05T06:16:33.932Z,18.08
2018-09-05T06:19:02.284Z,18.24
2018-09-05T06:21:30.457Z,18.37
2018-09-05T06:23:58.942Z,18.50
2018-09-05T06:26:27.548Z,18.55
2018-09-05T06:28:56.008Z,18.63
2018-09-05T06:31:24.484Z,18.75
2018-09-05T06:33:52.927Z,18.88
2018-09-05T06:36:21.618Z,18.92
2018-09-05T06:38:49.692Z,18.91
2018-09-05T06:41:18.260Z,18.96
2018-09-05T06:43:46.382Z,19.00
2018-09-05T06:46:14.503Z,19.08
2018-09-05T06:48:42.596Z,19.25
2018-09-05T06:51:10.724Z,19.39
2018-09-05T06:53:39.559Z,19.50
2018-09-05T06:56:08.572Z,19.68
2018-09-05T06:58:36.940Z,19.72
2018-09-05T07:01:05.655Z,19.74
2018-09-05T07:03:34.187Z,19.75
2018-09-05T07:06:02.772Z,19.79
2018-09-05T07:08:31.243Z,19.88
2018-09-05T07:11:00.194Z,19.99
2018-09-05T07:13:28.680Z,20.13
2018-09-05T07:15:57.262Z,20.31
2018-09-05T07:18:25.826Z,20.53
2018-09-05T07:21:05.684Z,20.73
2018-09-05T07:23:22.812Z,20.91
2018-09-05T07:25:51.279Z,20.94
2018-09-05T07:28:19.827Z,21.02
2018-09-05T07:30:48.375Z,21.09
2018-09-05T07:33:16.988Z,21.22
2018-09-05T07:35:45.621Z,21.37
2018-09-05T07:38:14.275Z,21.59
2018-09-05T07:40:42.719Z,21.79
2018-09-05T07:43:11.184Z,21.79
2018-09-05T07:45:39.288Z,21.70
2018-09-05T07:48:07.431Z,21.73
2018-09-05T07:50:35.765Z,21.89
2018-09-05T07:53:04.635Z,22.11
2018-09-05T07:55:33.123Z,22.31
2018-09-05T07:58:01.772Z,22.48
2018-09-05T08:00:30.556Z,22.65
2018-09-05T08:02:59.263Z,22.91
2018-09-05T08:05:27.848Z,23.17
2018-09-05T08:07:57.213Z,23.27
2018-09-05T08:10:25.808Z,23.28
2018-09-05T08:12:53.941Z,23.34
2018-09-05T08:15:22.389Z,23.39
2018-09-05T08:17:50.849Z,23.51
2018-09-05T08:20:19.283Z,23.64
2018-09-05T08:22:47.740Z,23.72
2018-09-05T08:25:16.191Z,23.83
2018-09-05T08:27:44.842Z,23.92
2018-09-05T08:30:13.285Z,23.86
2018-09-05T08:32:41.755Z,23.67
2018-09-05T08:35:10.357Z,23.51
2018-09-05T08:37:38.647Z,23.38
2018-09-05T08:40:07.826Z,23.44
2018-09-05T08:42:36.929Z,23.62
2018-09-05T08:45:06.455Z,23.78
2018-09-05T08:47:34.575Z,23.87
2018-09-05T08:50:02.834Z,23.95
2018-09-05T08:52:31.259Z,24.05
2018-09-05T08:55:00.001Z,24.15
2018-09-05T08:57:28.616Z,24.23
2018-09-05T08:59:56.744Z,24.38
2018-09-05T09:02:25.198Z,24.53
2018-09-05T09:04:53.553Z,24.62
2018-09-05T09:07:22.240Z,24.75
2018-09-05T09:09:50.372Z,24.79
2018-09-05T09:12:18.750Z,24.89
2018-09-05T09:14:47.221Z,25.09
2018-09-05T09:19:52.175Z,25.34
2018-09-05T09:22:20.264Z,25.39
2018-09-05T09:24:48.567Z,25.37
2018-09-05T09:27:17.036Z,25.42
2018-09-05T09:29:45.483Z,25.43
2018-09-05T09:32:14.105Z,25.32
2018-09-05T09:34:42.611Z,25.32
2018-09-05T09:37:11.500Z,25.50
2018-09-05T09:39:39.949Z,25.54
2018-09-05T09:42:08.625Z,25.78
2018-09-05T09:44:36.747Z,26.19
2018-09-05T09:47:05.211Z,26.55
2018-09-05T09:49:33.666Z,26.73
2018-09-05T09:52:07.825Z,26.91
2018-09-05T09:54:36.280Z,27.19
2018-09-05T09:57:04.468Z,27.21
2018-09-05T09:59:32.908Z,27.12
2018-09-05T10:02:06.676Z,26.98
2018-09-05T10:04:40.443Z,27.09
2018-09-05T10:07:15.717Z,27.34
2018-09-05T10:09:49.586Z,27.46
2018-09-05T10:12:23.615Z,27.43
2018-09-05T10:14:57.531Z,27.38
2018-09-05T10:17:33.971Z,27.44
2018-09-05T10:20:03.006Z,27.84
2018-09-05T10:22:32.206Z,28.28
2018-09-05T10:25:01.040Z,28.52
2018-09-05T10:27:31.091Z,28.72
2018-09-05T10:29:59.557Z,28.57
2018-09-05T10:32:27.991Z,28.49
2018-09-05T10:34:56.860Z,28.71
2018-09-05T10:37:26.011Z,29.00
2018-09-05T10:39:56.211Z,29.03
2018-09-05T10:42:24.668Z,29.17
2018-09-05T10:44:53.148Z,29.36
2018-09-05T10:47:21.589Z,29.67
2018-09-05T10:49:50.037Z,29.78
2018-09-05T10:52:18.675Z,29.83
2018-09-05T10:54:47.132Z,29.75
2018-09-05T10:57:15.424Z,29.74
2018-09-05T10:59:44.118Z,29.97
2018-09-05T11:02:12.229Z,30.32
2018-09-05T11:04:40.686Z,30.43
2018-09-05T11:07:09.141Z,30.28
2018-09-05T11:09:37.236Z,30.12
2018-09-05T11:12:05.792Z,30.05
2018-09-05T11:14:33.892Z,30.07
2018-09-05T11:17:02.339Z,30.05
2018-09-05T11:19:30.753Z,30.08
2018-09-05T11:21:58.999Z,30.15
2018-09-05T11:24:27.487Z,30.02
2018-09-05T11:26:55.804Z,29.63
2018-09-05T11:29:23.920Z,29.24
2018-09-05T11:31:52.360Z,29.03
2018-09-05T11:34:20.472Z,29.15
2018-09-05T11:36:48.579Z,29.38
2018-09-05T11:39:17.247Z,29.60
2018-09-05T11:41:45.408Z,29.96
2018-09-05T11:44:13.672Z,30.03
2018-09-05T11:46:42.131Z,30.00
2018-09-05T11:49:10.256Z,30.21
2018-09-05T11:51:38.607Z,30.15
2018-09-05T11:54:07.229Z,30.06
2018-09-05T11:56:35.556Z,30.02
2018-09-05T11:59:04.462Z,30.10
2018-09-05T12:01:32.916Z,30.06
2018-09-05T12:04:01.351Z,30.19
2018-09-05T12:06:29.789Z,30.59
2018-09-05T12:09:00.069Z,30.64
2018-09-05T12:11:28.181Z,30.35
2018-09-05T12:13:57.067Z,30.14
2018-09-05T12:16:25.191Z,30.11
2018-09-05T12:18:53.833Z,30.02
2018-09-05T12:21:23.967Z,29.95
2018-09-05T12:23:52.383Z,30.14
2018-09-05T12:26:21.325Z,30.11
2018-09-05T12:28:50.125Z,29.82
2018-09-05T12:31:18.610Z,29.67
2018-09-05T12:33:47.158Z,29.87
2018-09-05T12:36:15.879Z,30.24
2018-09-05T12:38:43.989Z,30.52
2018-09-05T12:41:12.762Z,30.55
2018-09-05T12:43:41.463Z,30.46
2018-09-05T12:46:09.691Z,30.45
2018-09-05T12:48:37.818Z,30.52
2018-09-05T12:51:06.703Z,30.71
2018-09-05T12:53:35.144Z,30.79
2018-09-05T12:56:03.275Z,30.80
2018-09-05T12:58:31.399Z,30.86
2018-09-05T13:01:00.090Z,30.94
2018-09-05T13:03:28.724Z,31.19
2018-09-05T13:05:57.605Z,31.34
2018-09-05T13:08:26.080Z,31.27
2018-09-05T13:10:54.401Z,31.08
2018-09-05T13:13:22.869Z,30.98
2018-09-05T13:15:51.372Z,30.83
2018-09-05T13:18:20.021Z,30.61
2018-09-05T13:20:48.472Z,30.66
2018-09-05T13:23:16.938Z,30.76
2018-09-05T13:25:45.391Z,30.54
2018-09-05T13:28:13.837Z,30.38
2018-09-05T13:30:41.959Z,30.48
2018-09-05T13:33:10.141Z,30.70
2018-09-05T13:35:38.726Z,30.87
2018-09-05T13:38:06.918Z,30.92
2018-09-05T13:40:35.363Z,30.94
2018-09-05T13:43:04.111Z,31.09
2018-09-05T13:45:32.468Z,31.19
2018-09-05T13:48:00.591Z,31.03
2018-09-05T13:50:28.696Z,30.89
2018-09-05T13:52:56.872Z,31.07
2018-09-05T13:55:25.363Z,31.40
2018-09-05T13:57:53.959Z,31.53
2018-09-05T14:00:22.981Z,31.65
2018-09-05T14:02:51.135Z,31.57
2018-09-05T14:05:19.766Z,31.30
2018-09-05T14:07:49.857Z,31.00
2018-09-05T14:10:18.884Z,30.81
2018-09-05T14:12:47.664Z,30.77
2018-09-05T14:15:16.379Z,30.60
2018-09-05T14:17:44.985Z,30.60
2018-09-05T14:20:13.473Z,30.69
2018-09-05T14:22:42.029Z,30.80
2018-09-05T14:25:10.160Z,31.01
2018-09-05T14:27:38.641Z,31.18
2018-09-05T14:30:06.952Z,31.33
2018-09-05T14:32:35.600Z,31.25
2018-09-05T14:35:04.548Z,30.98
2018-09-05T14:37:33.005Z,30.72
2018-09-05T14:40:01.532Z,30.52
2018-09-05T14:42:31.119Z,30.38
2018-09-05T14:44:59.492Z,30.32
2018-09-05T14:47:27.952Z,30.28
2018-09-05T14:49:56.137Z,30.21
2018-09-05T14:52:24.580Z,30.22
2018-09-05T14:54:53.597Z,30.23
2018-09-05T14:57:22.272Z,30.28
2018-09-05T14:59:50.773Z,30.32
2018-09-05T15:02:19.503Z,30.45
2018-09-05T15:04:48.212Z,30.69
2018-09-05T15:07:16.647Z,30.80
2018-09-05T15:09:45.093Z,30.80
2018-09-05T15:12:13.282Z,30.74
2018-09-05T15:14:41.609Z,30.78
2018-09-05T15:17:09.938Z,30.75
2018-09-05T15:19:38.635Z,30.70
2018-09-05T15:22:06.855Z,30.70
2018-09-05T15:24:35.605Z,30.68
2018-09-05T15:27:04.064Z,30.55
2018-09-05T15:29:32.516Z,30.45
2018-09-05T15:32:01.003Z,30.44
2018-09-05T15:34:29.704Z,30.48
2018-09-05T15:36:58.152Z,30.45
2018-09-05T15:39:26.689Z,30.40
2018-09-05T15:41:55.327Z,30.17
2018-09-05T15:44:23.772Z,29.93
2018-09-05T15:46:52.308Z,29.90
2018-09-05T15:49:20.981Z,29.90
2018-09-05T15:51:54.206Z,29.92
2018-09-05T15:54:23.908Z,29.96
2018-09-05T15:56:52.803Z,30.05
2018-09-05T15:59:21.423Z,30.06
2018-09-05T16:01:49.794Z,29.83
2018-09-05T16:04:18.436Z,29.57
2018-09-05T16:06:46.943Z,29.35
2018-09-05T16:09:15.481Z,29.24
2018-09-05T16:11:45.589Z,29.20
2018-09-05T16:14:13.717Z,29.02
2018-09-05T16:16:41.931Z,28.94
2018-09-05T16:19:10.276Z,28.93
2018-09-05T16:21:38.413Z,28.82
2018-09-05T16:24:06.935Z,28.68
2018-09-05T16:26:35.309Z,28.67
2018-09-05T16:29:04.016Z,28.69
2018-09-05T16:31:32.182Z,28.71
2018-09-05T16:34:00.737Z,28.63
2018-09-05T16:36:28.852Z,28.62
2018-09-05T16:38:56.980Z,28.63
2018-09-05T16:41:25.445Z,28.60
2018-09-05T16:43:53.908Z,28.49
2018-09-05T16:46:22.353Z,28.34
2018-09-05T16:48:50.814Z,28.23
2018-09-05T16:51:19.460Z,28.19
2018-09-05T16:53:47.572Z,28.07
2018-09-05T16:56:16.875Z,27.93
2018-09-05T16:58:45.963Z,27.83
2018-09-05T17:01:14.416Z,27.67
2018-09-05T17:03:42.865Z,27.52
2018-09-05T17:06:11.319Z,27.42
2018-09-05T17:08:39.463Z,27.41
2018-09-05T17:11:07.585Z,27.36
2018-09-05T17:13:36.251Z,27.34
2018-09-05T17:16:04.619Z,27.28
2018-09-05T17:18:33.435Z,27.20
2018-09-05T17:21:02.376Z,27.11
2018-09-05T17:23:30.829Z,27.07
2018-09-05T17:25:59.520Z,26.99
2018-09-05T17:28:30.496Z,26.93
2018-09-05T17:30:59.101Z,26.86
2018-09-05T17:33:27.596Z,26.80
2018-09-05T17:35:57.288Z,26.74
2018-09-05T17:38:26.768Z,26.70
2018-09-05T17:40:55.220Z,26.63
2018-09-05T17:43:23.367Z,26.58
2018-09-05T17:45:52.059Z,26.50
2018-09-05T17:48:21.481Z,26.43
2018-09-05T17:50:52.654Z,26.37
2018-09-05T17:53:21.384Z,26.29
2018-09-05T17:55:49.840Z,26.20
2018-09-05T17:58:18.755Z,26.11
2018-09-05T18:00:46.929Z,26.05
2018-09-05T18:03:15.038Z,25.95
2018-09-05T18:05:43.481Z,25.86
2018-09-05T18:08:12.223Z,25.81
2018-09-05T18:10:40.560Z,25.76
2018-09-05T18:13:09.636Z,25.70
2018-09-05T18:15:38.120Z,25.63
2018-09-05T18:18:07.740Z,25.54
2018-09-05T18:20:37.115Z,25.47
2018-09-05T18:23:05.360Z,25.36
2018-09-05T18:25:35.220Z,25.27
2018-09-05T18:28:03.664Z,25.18
2018-09-05T18:30:32.171Z,25.10
2018-09-05T18:33:00.624Z,25.02
2018-09-05T18:35:29.274Z,24.96
2018-09-05T18:37:57.754Z,24.89
2018-09-05T18:40:26.405Z,24.84
2018-09-05T18:42:54.558Z,24.77
2018-09-05T18:45:23.212Z,24.71
2018-09-05T18:47:51.326Z,24.64
2018-09-05T18:50:19.455Z,24.58
2018-09-05T18:52:47.917Z,24.54
2018-09-05T18:55:16.692Z,24.48
2018-09-05T18:57:45.183Z,24.43
2018-09-05T19:00:13.588Z,24.39
2018-09-05T19:02:42.079Z,24.33
2018-09-05T19:05:10.559Z,24.24
2018-09-05T19:07:38.675Z,24.19
2018-09-05T19:10:07.360Z,24.14
2018-09-05T19:12:35.806Z,24.13
2018-09-05T19:15:04.377Z,24.07
2018-09-05T19:17:32.844Z,24.01
2018-09-05T19:20:01.326Z,23.92
2018-09-05T19:22:29.815Z,23.83
2018-09-05T19:24:58.060Z,23.76
2018-09-05T19:27:26.217Z,23.73
2018-09-05T19:32:44.818Z,23.72
2018-09-05T19:35:13.092Z,23.71
2018-09-05T19:37:41.624Z,23.69
2018-09-05T19:40:10.185Z,23.68
2018-09-05T19:42:38.521Z,23.66
2018-09-05T19:45:07.217Z,23.64
2018-09-05T19:47:35.426Z,23.60
2018-09-05T19:50:04.533Z,23.55
2018-09-05T19:52:33.200Z,23.50
2018-09-05T19:55:01.312Z,23.45
2018-09-05T19:57:30.029Z,23.40
2018-09-05T19:59:58.404Z,23.34
2018-09-05T20:02:26.876Z,23.28
2018-09-05T20:04:55.333Z,23.24
2018-09-05T20:07:25.251Z,23.23
2018-09-05T20:09:53.580Z,23.23
2018-09-05T20:12:21.953Z,23.22
2018-09-05T20:14:50.328Z,23.23
2018-09-05T20:17:19.260Z,23.21
2018-09-05T20:19:47.716Z,23.16
2018-09-05T20:22:16.060Z,23.10
2018-09-05T20:24:44.508Z,23.06
2018-09-05T20:27:12.649Z,23.03
2018-09-05T20:29:40.972Z,22.98
2018-09-05T20:32:09.457Z,22.92
2018-09-05T20:34:37.585Z,22.89
2018-09-05T20:37:05.972Z,22.82
2018-09-05T20:39:34.100Z,22.67
2018-09-05T20:42:02.224Z,22.49
2018-09-05T20:44:30.686Z,22.30
2018-09-05T20:46:59.433Z,22.15
2018-09-05T20:49:27.781Z,21.99
2018-09-05T20:51:55.921Z,21.84
2018-09-05T20:54:24.408Z,21.71
2018-09-05T20:56:52.868Z,21.58
2018-09-05T20:59:21.000Z,21.53
2018-09-05T21:01:49.145Z,21.48
2018-09-05T21:04:17.596Z,21.40
2018-09-05T21:06:48.753Z,21.33
2018-09-05T21:09:18.165Z,21.26
2018-09-05T21:11:46.297Z,21.19
2018-09-05T21:14:14.766Z,21.15
2018-09-05T21:16:43.237Z,21.09
2018-09-05T21:19:11.380Z,21.03
2018-09-05T21:21:40.054Z,20.97
2018-09-05T21:24:08.401Z,20.91
2018-09-05T21:26:36.925Z,20.84
2018-09-05T21:29:05.556Z,20.78
2018-09-05T21:31:34.033Z,20.72
2018-09-05T21:34:02.553Z,20.67
2018-09-05T21:36:31.142Z,20.62
2018-09-05T21:38:59.345Z,20.53
2018-09-05T21:41:27.619Z,20.47
2018-09-05T21:43:56.284Z,20.40
2018-09-05T21:46:24.957Z,20.34
2018-09-05T21:48:54.004Z,20.26
2018-09-05T21:51:22.135Z,20.21
2018-09-05T21:53:50.292Z,20.16
2018-09-05T21:56:18.432Z,20.12
2018-09-05T21:58:46.584Z,20.08
2018-09-05T22:01:16.193Z,20.04
2018-09-05T22:03:44.362Z,19.98
2018-09-05T22:06:13.197Z,19.93
2018-09-05T22:08:41.549Z,19.89
2018-09-05T22:11:15.128Z,19.84
2018-09-05T22:13:43.539Z,19.78
2018-09-05T22:16:11.884Z,19.74
2018-09-05T22:18:40.225Z,19.71
2018-09-05T22:21:08.700Z,19.65
2018-09-05T22:23:37.227Z,19.61
2018-09-05T22:26:07.157Z,19.57
2018-09-05T22:28:35.932Z,19.55
2018-09-05T22:31:04.388Z,19.50
2018-09-05T22:33:32.520Z,19.45
2018-09-05T22:36:00.644Z,19.42
2018-09-05T22:38:28.792Z,19.40
2018-09-05T22:40:57.252Z,19.36
2018-09-05T22:43:37.479Z,19.32
2018-09-05T22:46:17.016Z,19.31
2018-09-05T22:48:56.581Z,19.27
2018-09-05T22:52:10.885Z,19.24
2018-09-05T22:54:56.009Z,19.21
2018-09-05T22:58:40.380Z,19.14
2018-09-05T23:01:19.269Z,19.09
2018-09-05T23:04:05.169Z,19.05
2018-09-05T23:06:43.525Z,19.00
2018-09-05T23:09:12.017Z,18.90
2018-09-05T23:11:49.290Z,18.94
2018-09-05T23:15:28.955Z,18.93
2018-09-05T23:18:11.261Z,18.90
2018-09-05T23:21:05.010Z,18.85
2018-09-05T23:23:44.344Z,18.84
2018-09-05T23:26:12.828Z,18.85
2018-09-05T23:28:40.993Z,18.86
2018-09-05T23:31:09.466Z,18.86
2018-09-05T23:33:37.969Z,18.83
2018-09-05T23:36:06.185Z,18.80
2018-09-05T23:38:34.349Z,18.76
2018-09-05T23:41:03.097Z,18.74
2018-09-05T23:43:31.657Z,18.72
2018-09-05T23:46:00.733Z,18.71
2018-09-05T23:48:29.452Z,18.66
2018-09-05T23:50:58.001Z,18.65
2018-09-05T23:53:26.514Z,18.63
2018-09-05T23:55:54.813Z,18.60
2018-09-05T23:58:23.892Z,18.57
